KMLI/MLI METAR and TAF weather

Enter ICAO airport designator
Station Type Date Time Source
KMLI METAR 2019/04/25 11:52 UTC NOAA

KMLI 251152Z 14004KT 5SM BR FEW005 06/04 A2981 RMK AO2 SLP095 T00560044 10083 20044 53004


Station Type Date Time Source
KMLI Decoded METAR 2019/04/25 11:52 UTC NOAA

MOLINE QUAD-CITY AIRPORT, IL, United States (KMLI) 41-27N 90-31W 184M
Apr 25, 2019 - 07:52 AM EDT / 2019.04.25 1152 UTC
Wind: from the SE (140 degrees) at 5 MPH (4 KT):0
Visibility: 5 mile(s):0
Sky conditions: mostly clear
Weather: mist
Temperature: 42.1 F (5.6 C)
Dew Point: 39.9 F (4.4 C)
Relative Humidity: 91%
Pressure (altimeter): 29.81 in. Hg (1009 hPa)
Pressure tendency: 0.01 inches (0.4 hPa) higher than three hours ago
ob: KMLI 251152Z 14004KT 5SM BR FEW005 06/04 A2981 RMK AO2 SLP095 T00560044 10083 20044 53004
cycle: 12

Station Type Date Time Source
KMLI TAF 2019/04/25 12:27 UTC NOAA

TAF KMLI 251123Z 2512/2612 00000KT 6SM BR SCT003
TEMPO 2512/2515 3SM BR BKN003
FM251700 22006KT P6SM SCT010 BKN120
FM252300 33014G23KT P6SM VCSH SCT030 BKN050
FM260400 34012KT P6SM SCT050

Example: see airport list